Academy, South Dakota
Current Conditions -  °F | °C
As of 10:35 AM on Saturday 20 Dec 2014 (Local Time) from K9V9 Reporting Station
Scattered Clouds Scattered Clouds  
Wind Chill: 19°   Ceiling: Unl
Heat Index: 19°   Visibility: 7mi
Dew Point: 17°   Wind: 3mph
Humidity: 94%   Direction: 130°SE
Pressure: 30"   Gusts: NA
Location:  43.4255°N, 98.9806°W
Report Text: K9V9 201635Z AUTO 13003KT 7SM SCT120 M07/M08 A3000 RMK AO2 T10731081
Loading
Personal Weather Stations






























Interactive Weather Map New forecast layout! Learn more

10-Day Weather Forecast

Advertisements
Track Severe Weather on mobile